createdAt,value
2019-02-08T00:00:45.115Z,111.17
2019-02-08T00:03:16.411Z,105.63
2019-02-08T00:05:47.581Z,98.47
2019-02-08T00:08:18.826Z,92.03
2019-02-08T00:10:50.063Z,92.03
2019-02-08T00:13:21.363Z,87.37
2019-02-08T00:15:52.579Z,90.17
2019-02-08T00:18:24.025Z,93.13
2019-02-08T00:20:56.709Z,92.07
2019-02-08T00:23:27.975Z,95.57
2019-02-08T00:25:59.238Z,90.17
2019-02-08T00:28:30.494Z,85.53
2019-02-08T00:31:01.781Z,90.10
2019-02-08T00:33:34.489Z,88.97
2019-02-08T00:36:06.222Z,76.93
2019-02-08T00:38:37.514Z,54.03
2019-02-08T00:41:08.747Z,72.27
2019-02-08T00:43:39.937Z,56.67
2019-02-08T00:46:11.301Z,53.33
2019-02-08T00:48:42.540Z,60.07
2019-02-08T00:51:13.718Z,58.63
2019-02-08T00:53:44.982Z,76.93
2019-02-08T00:56:16.215Z,58.60
2019-02-08T00:58:47.494Z,56.53
2019-02-08T01:01:20.154Z,54.27
2019-02-08T01:03:51.362Z,48.03
2019-02-08T01:06:22.605Z,52.13
2019-02-08T01:08:53.978Z,58.50
2019-02-08T01:11:25.186Z,52.33
2019-02-08T01:13:56.463Z,56.17
2019-02-08T01:16:28.205Z,55.20
2019-02-08T01:18:59.463Z,60.60
2019-02-08T01:21:30.682Z,57.03
2019-02-08T01:24:01.935Z,59.67
2019-02-08T01:26:33.154Z,52.07
2019-02-08T01:29:04.501Z,45.97
2019-02-08T01:31:37.185Z,54.07
2019-02-08T01:34:08.463Z,51.67
2019-02-08T01:36:39.667Z,47.43
2019-02-08T01:39:11.885Z,49.70
2019-02-08T01:41:43.020Z,50.13
2019-02-08T01:44:14.285Z,50.20
2019-02-08T01:46:45.555Z,53.00
2019-02-08T01:49:16.855Z,57.47
2019-02-08T01:51:48.105Z,62.50
2019-02-08T01:54:19.373Z,64.93
2019-02-08T01:56:50.642Z,67.07
2019-02-08T01:59:21.944Z,63.40
2019-02-08T02:01:53.192Z,62.53
2019-02-08T02:04:24.464Z,60.83
2019-02-08T02:06:55.688Z,59.97
2019-02-08T02:09:27.009Z,63.57
2019-02-08T02:11:58.301Z,59.30
2019-02-08T02:14:29.578Z,56.40
2019-02-08T02:17:00.782Z,59.37
2019-02-08T02:19:32.107Z,53.93
2019-02-08T02:22:03.274Z,52.10
2019-02-08T02:24:34.557Z,47.60
2019-02-08T02:27:05.770Z,50.37
2019-02-08T02:29:37.043Z,43.90
2019-02-08T02:32:08.289Z,45.70
2019-02-08T02:34:39.483Z,44.67
2019-02-08T02:37:10.674Z,46.90
2019-02-08T02:39:41.897Z,63.37
2019-02-08T02:42:13.095Z,59.70
2019-02-08T02:44:44.365Z,61.10
2019-02-08T02:47:15.583Z,56.53
2019-02-08T02:49:46.782Z,55.47
2019-02-08T02:52:21.038Z,58.10
2019-02-08T02:54:52.343Z,57.67
2019-02-08T02:57:23.484Z,51.20
2019-02-08T02:59:54.762Z,61.80
2019-02-08T03:02:27.213Z,57.50
2019-02-08T03:04:58.517Z,64.80
2019-02-08T03:07:29.665Z,65.27
2019-02-08T03:10:00.951Z,63.27
2019-02-08T03:12:32.223Z,62.33
2019-02-08T03:15:03.493Z,64.90
2019-02-08T03:17:34.741Z,64.23
2019-02-08T03:20:09.185Z,59.90
2019-02-08T03:22:40.398Z,50.17
2019-02-08T03:25:14.714Z,50.07
2019-02-08T03:27:46.055Z,50.13
2019-02-08T03:30:21.635Z,47.93
2019-02-08T03:32:52.881Z,45.83
2019-02-08T03:35:25.423Z,46.00
2019-02-08T03:37:58.091Z,45.33
2019-02-08T03:40:30.601Z,49.20
2019-02-08T03:43:02.781Z,58.17
2019-02-08T03:45:35.622Z,53.13
2019-02-08T03:48:08.016Z,53.97
2019-02-08T03:50:39.468Z,57.33
2019-02-08T03:53:10.730Z,60.77
2019-02-08T03:55:42.991Z,58.57
2019-02-08T03:58:14.224Z,65.03
2019-02-08T04:00:47.001Z,69.40
2019-02-08T04:03:18.219Z,66.07
2019-02-08T04:05:49.482Z,68.93
2019-02-08T04:08:20.746Z,66.90
2019-02-08T04:10:52.005Z,63.00
2019-02-08T04:13:23.201Z,61.97
2019-02-08T04:15:54.454Z,62.03
2019-02-08T04:18:25.845Z,60.77
2019-02-08T04:20:57.094Z,61.47
2019-02-08T04:23:28.333Z,59.57
2019-02-08T04:26:00.253Z,59.00
2019-02-08T04:28:31.465Z,56.40
2019-02-08T04:31:03.826Z,61.90
2019-02-08T04:33:35.003Z,60.43
2019-02-08T04:36:06.257Z,60.50
2019-02-08T04:38:37.516Z,65.13
2019-02-08T04:41:08.833Z,59.03
2019-02-08T04:43:40.025Z,58.77
2019-02-08T04:46:11.366Z,75.93
2019-02-08T04:48:42.596Z,152.43
2019-02-08T04:51:16.374Z,254.50
2019-02-08T04:53:47.641Z,144.90
2019-02-08T04:56:18.953Z,464.20
2019-02-08T04:58:50.405Z,371.77
2019-02-08T05:01:21.683Z,320.40
2019-02-08T05:03:52.897Z,141.83
2019-02-08T05:06:24.102Z,69.53
2019-02-08T05:08:55.334Z,69.20
2019-02-08T05:11:26.610Z,65.10
2019-02-08T05:13:57.807Z,87.20
2019-02-08T05:16:29.095Z,99.20
2019-02-08T05:19:00.283Z,92.53
2019-02-08T05:21:31.586Z,91.80
2019-02-08T05:24:02.755Z,99.60
2019-02-08T05:26:34.065Z,74.73
2019-02-08T05:29:05.263Z,92.77
2019-02-08T05:31:36.706Z,92.20
2019-02-08T05:34:07.936Z,87.27
2019-02-08T05:36:39.241Z,83.97
2019-02-08T05:39:12.893Z,77.17
2019-02-08T05:41:44.558Z,67.53
2019-02-08T05:44:15.797Z,70.73
2019-02-08T05:46:47.003Z,62.77
2019-02-08T05:49:19.643Z,72.67
2019-02-08T05:51:50.893Z,68.53
2019-02-08T05:54:22.131Z,64.70
2019-02-08T05:56:53.385Z,65.60
2019-02-08T05:59:24.523Z,63.03
2019-02-08T06:01:55.795Z,68.10
2019-02-08T06:07:17.172Z,60.60
2019-02-08T06:09:48.387Z,56.00
2019-02-08T06:12:20.302Z,59.03
2019-02-08T06:14:51.551Z,59.27
2019-02-08T06:17:22.805Z,61.30
2019-02-08T06:19:54.027Z,68.43
2019-02-08T06:22:25.264Z,84.03
2019-02-08T06:25:03.323Z,90.60
2019-02-08T06:27:32.429Z,132.87
2019-02-08T06:30:05.852Z,123.73
2019-02-08T06:32:37.211Z,156.13
2019-02-08T06:35:09.418Z,173.73
2019-02-08T06:37:44.455Z,178.30
2019-02-08T06:40:16.992Z,145.40
2019-02-08T06:42:48.281Z,132.80
2019-02-08T06:45:22.625Z,141.00
2019-02-08T06:47:54.130Z,150.40
2019-02-08T06:50:26.479Z,142.13
2019-02-08T06:52:58.275Z,132.00
2019-02-08T06:55:29.471Z,118.30
2019-02-08T06:58:02.305Z,101.07
2019-02-08T07:00:40.931Z,97.83
2019-02-08T07:03:13.784Z,75.27
2019-02-08T07:05:52.333Z,65.07
2019-02-08T07:08:25.145Z,63.27
2019-02-08T07:10:57.927Z,68.53
2019-02-08T07:13:48.501Z,60.50
2019-02-08T07:16:24.231Z,50.33
2019-02-08T07:18:57.058Z,50.63
2019-02-08T07:21:35.629Z,46.50
2019-02-08T07:24:17.716Z,49.90
2019-02-08T07:26:56.323Z,45.33
2019-02-08T07:29:43.993Z,44.43
2019-02-08T07:32:25.659Z,46.43
2019-02-08T07:35:15.015Z,38.77
2019-02-08T07:37:47.774Z,43.37
2019-02-08T07:40:35.377Z,44.50
2019-02-08T07:43:24.633Z,33.37
2019-02-08T07:46:03.786Z,47.03
2019-02-08T07:48:39.303Z,40.30
2019-02-08T07:51:12.261Z,48.90
2019-02-08T07:53:50.901Z,44.73
2019-02-08T07:56:23.727Z,48.13
2019-02-08T07:59:08.433Z,44.43
2019-02-08T08:01:44.043Z,38.47
2019-02-08T08:04:16.837Z,46.23
2019-02-08T08:07:05.658Z,42.90
2019-02-08T08:09:48.701Z,43.70
2019-02-08T08:12:24.113Z,47.27
2019-02-08T08:14:59.653Z,32.97
2019-02-08T08:17:33.565Z,41.80
2019-02-08T08:20:12.342Z,44.87
2019-02-08T08:22:51.155Z,41.77
2019-02-08T08:25:24.395Z,39.90
2019-02-08T08:28:03.330Z,44.90
2019-02-08T08:30:45.228Z,41.63
2019-02-08T08:33:19.663Z,43.47
2019-02-08T08:35:54.058Z,50.57
2019-02-08T08:38:49.341Z,48.27
2019-02-08T08:41:51.598Z,38.83
2019-02-08T08:44:32.025Z,45.77
2019-02-08T08:47:28.964Z,51.83
2019-02-08T08:50:08.962Z,44.53
2019-02-08T08:53:00.674Z,45.77
2019-02-08T08:55:44.255Z,44.33
2019-02-08T08:58:24.423Z,44.60
2019-02-08T09:01:07.905Z,42.87
2019-02-08T09:03:51.361Z,49.23
2019-02-08T09:06:42.201Z,48.67
2019-02-08T09:09:28.666Z,48.53
2019-02-08T09:12:14.855Z,56.67
2019-02-08T09:15:22.418Z,55.20
2019-02-08T09:18:02.685Z,48.40
2019-02-08T09:20:58.057Z,50.30
2019-02-08T09:23:41.110Z,51.30
2019-02-08T09:26:36.222Z,45.63
2019-02-08T09:29:29.992Z,48.10
2019-02-08T09:32:16.366Z,45.57
2019-02-08T09:35:07.164Z,52.83
2019-02-08T09:37:50.385Z,51.37
2019-02-08T09:40:37.042Z,42.90
2019-02-08T09:43:16.792Z,49.33
2019-02-08T09:46:13.586Z,49.03
2019-02-08T09:48:53.815Z,46.90
2019-02-08T09:51:49.122Z,47.20
2019-02-08T09:54:45.870Z,48.83
2019-02-08T09:57:40.062Z,46.63
2019-02-08T10:00:32.696Z,41.60
2019-02-08T10:03:25.782Z,43.23
2019-02-08T10:06:06.010Z,38.13
2019-02-08T10:08:56.596Z,43.47
2019-02-08T10:11:50.343Z,52.10
2019-02-08T10:14:54.865Z,69.97
2019-02-08T10:17:38.023Z,42.23
2019-02-08T10:20:41.231Z,45.20
2019-02-08T10:23:38.037Z,46.30
2019-02-08T10:26:15.206Z,47.27
2019-02-08T10:29:01.366Z,44.37
2019-02-08T10:31:45.643Z,44.97
2019-02-08T10:34:45.430Z,45.60
2019-02-08T10:37:45.670Z,42.70
2019-02-08T10:40:29.145Z,42.97
2019-02-08T10:43:15.510Z,42.23
2019-02-08T10:45:52.570Z,37.97
2019-02-08T10:48:33.764Z,43.23
2019-02-08T10:51:33.582Z,38.77
2019-02-08T10:54:38.233Z,32.27
2019-02-08T10:57:22.232Z,42.90
2019-02-08T11:00:05.534Z,20.97
2019-02-08T11:03:02.535Z,36.77
2019-02-08T11:05:48.922Z,29.17
2019-02-08T11:08:58.233Z,37.77
2019-02-08T11:12:05.826Z,39.30
2019-02-08T11:14:51.803Z,38.70
2019-02-08T11:17:34.941Z,32.33
2019-02-08T11:20:08.443Z,40.00
2019-02-08T11:22:39.721Z,37.47
2019-02-08T11:25:10.945Z,36.67
2019-02-08T11:27:42.256Z,30.17
2019-02-08T11:30:17.417Z,35.73
2019-02-08T11:32:50.227Z,30.37
2019-02-08T11:35:21.467Z,35.77
2019-02-08T11:37:52.751Z,35.97
2019-02-08T11:40:25.361Z,36.23
2019-02-08T11:42:56.622Z,35.37
2019-02-08T11:45:27.882Z,27.57
2019-02-08T11:47:59.174Z,29.50
2019-02-08T11:50:30.428Z,30.83
2019-02-08T11:53:01.685Z,31.63
2019-02-08T11:55:32.934Z,24.97
2019-02-08T11:58:04.401Z,30.10
2019-02-08T12:00:40.155Z,31.03
2019-02-08T12:03:12.966Z,29.50
2019-02-08T12:05:44.141Z,29.57
2019-02-08T12:08:15.380Z,30.30
2019-02-08T12:10:46.643Z,23.60
2019-02-08T12:13:17.856Z,28.73
2019-02-08T12:15:49.063Z,30.63
2019-02-08T12:18:21.895Z,27.07
2019-02-08T12:20:53.206Z,34.80
2019-02-08T12:23:24.495Z,18.17
2019-02-08T12:25:55.842Z,19.20
2019-02-08T12:28:27.128Z,28.17
2019-02-08T12:30:58.362Z,28.80
2019-02-08T12:33:29.718Z,28.17
2019-02-08T12:36:00.918Z,24.47
2019-02-08T12:38:32.256Z,30.30
2019-02-08T12:41:09.680Z,33.77
2019-02-08T12:43:36.513Z,32.73
2019-02-08T12:46:07.766Z,26.53
2019-02-08T12:48:39.035Z,22.17
2019-02-08T12:51:10.337Z,29.60
2019-02-08T12:53:41.555Z,26.20
2019-02-08T12:56:12.745Z,24.03
2019-02-08T12:58:44.002Z,29.30
2019-02-08T13:01:15.217Z,39.00
2019-02-08T13:03:46.543Z,30.57
2019-02-08T13:06:17.751Z,28.53
2019-02-08T13:08:49.798Z,26.40
2019-02-08T13:11:21.025Z,27.63
2019-02-08T13:13:53.810Z,24.23
2019-02-08T13:16:25.016Z,27.53
2019-02-08T13:18:56.228Z,27.43
2019-02-08T13:21:27.425Z,24.47
2019-02-08T13:23:58.847Z,27.73
2019-02-08T13:26:30.066Z,23.23
2019-02-08T13:29:01.359Z,29.27
2019-02-08T13:31:34.038Z,25.70
2019-02-08T13:34:05.624Z,30.27
2019-02-08T13:36:36.782Z,25.10
2019-02-08T13:39:08.165Z,27.67
2019-02-08T13:41:42.330Z,31.93
2019-02-08T13:44:13.872Z,31.97
2019-02-08T13:46:46.222Z,29.10
2019-02-08T13:49:17.499Z,29.23
2019-02-08T13:51:53.215Z,27.13
2019-02-08T13:54:25.674Z,28.17
2019-02-08T13:57:00.698Z,30.53
2019-02-08T13:59:29.661Z,28.33
2019-02-08T14:02:00.757Z,27.73
2019-02-08T14:04:31.946Z,27.60
2019-02-08T14:07:03.073Z,25.90
2019-02-08T14:09:34.225Z,26.13
2019-02-08T14:12:05.257Z,24.73
2019-02-08T14:14:36.481Z,26.90
2019-02-08T14:19:43.565Z,27.27
2019-02-08T14:22:14.701Z,25.37
2019-02-08T14:24:46.037Z,26.70
2019-02-08T14:27:17.284Z,25.50
2019-02-08T14:29:48.559Z,20.60
2019-02-08T14:32:19.754Z,24.07
2019-02-08T14:34:51.000Z,27.57
2019-02-08T14:37:22.186Z,27.30
2019-02-08T14:39:53.361Z,43.57
2019-02-08T14:42:24.408Z,54.57
2019-02-08T14:44:55.605Z,29.20
2019-02-08T14:47:26.734Z,41.20
2019-02-08T14:49:57.793Z,40.40
2019-02-08T14:52:28.894Z,33.20
2019-02-08T14:54:59.953Z,33.37
2019-02-08T14:57:31.058Z,33.90
2019-02-08T15:03:12.522Z,28.83
2019-02-08T15:05:43.691Z,27.90
2019-02-08T15:08:14.783Z,37.87
2019-02-08T15:10:48.997Z,39.60
2019-02-08T15:13:23.846Z,40.47
2019-02-08T15:15:54.862Z,40.13
2019-02-08T15:18:26.276Z,35.23
2019-02-08T15:20:57.487Z,29.57
2019-02-08T15:23:28.679Z,32.20
2019-02-08T15:25:59.923Z,27.10
2019-02-08T15:28:31.229Z,28.93
2019-02-08T15:31:02.363Z,29.83
2019-02-08T15:33:33.603Z,28.67
2019-02-08T15:36:04.812Z,28.57
2019-02-08T15:38:36.036Z,29.37
2019-02-08T15:41:07.517Z,42.77
2019-02-08T15:43:38.866Z,121.30
2019-02-08T15:46:10.115Z,44.13
2019-02-08T15:48:41.456Z,32.40
2019-02-08T15:51:12.698Z,149.57
2019-02-08T15:53:43.937Z,65.63
2019-02-08T15:56:15.168Z,43.77
2019-02-08T15:58:46.354Z,42.67
2019-02-08T16:01:17.552Z,48.70
2019-02-08T16:03:48.834Z,51.57
2019-02-08T16:06:19.969Z,162.20
2019-02-08T16:08:51.226Z,128.10
2019-02-08T16:11:22.427Z,52.50
2019-02-08T16:13:53.713Z,44.40
2019-02-08T16:16:26.327Z,71.80
2019-02-08T16:18:58.935Z,56.13
2019-02-08T16:21:32.621Z,45.37
2019-02-08T16:24:03.912Z,45.87
2019-02-08T16:26:42.331Z,50.60
2019-02-08T16:29:12.418Z,46.63
2019-02-08T16:31:43.631Z,46.90
2019-02-08T16:34:17.884Z,40.37
2019-02-08T16:36:49.065Z,49.23
2019-02-08T16:39:20.313Z,50.50
2019-02-08T16:41:52.772Z,54.83
2019-02-08T16:44:24.253Z,50.00
2019-02-08T16:46:55.441Z,44.23
2019-02-08T16:49:27.055Z,44.50
2019-02-08T16:51:58.262Z,45.20
2019-02-08T16:54:29.439Z,47.27
2019-02-08T16:57:01.830Z,50.10
2019-02-08T16:59:34.441Z,50.83
2019-02-08T17:02:05.680Z,55.20
2019-02-08T17:04:36.829Z,62.67
2019-02-08T17:07:07.984Z,54.13
2019-02-08T17:09:40.375Z,63.43
2019-02-08T17:12:11.687Z,59.03
2019-02-08T17:14:42.965Z,64.13
2019-02-08T17:17:14.219Z,62.63
2019-02-08T17:19:45.449Z,59.90
2019-02-08T17:22:16.775Z,57.13
2019-02-08T17:24:48.182Z,53.17
2019-02-08T17:27:19.491Z,59.73
2019-02-08T17:29:50.788Z,63.70
2019-02-08T17:32:22.058Z,64.60
2019-02-08T17:34:53.194Z,67.00
2019-02-08T17:37:24.447Z,85.50
2019-02-08T17:39:55.658Z,139.07
2019-02-08T17:42:26.994Z,148.07
2019-02-08T17:44:58.511Z,116.50
2019-02-08T17:47:29.764Z,144.37
2019-02-08T17:50:01.123Z,170.17
2019-02-08T17:52:32.738Z,171.70
2019-02-08T17:55:11.433Z,188.63
2019-02-08T17:57:43.845Z,184.10
2019-02-08T18:00:35.383Z,193.83
2019-02-08T18:03:06.633Z,205.87
2019-02-08T18:05:38.899Z,218.13
2019-02-08T18:08:11.561Z,183.07
2019-02-08T18:10:42.933Z,201.07
2019-02-08T18:13:14.398Z,223.60
2019-02-08T18:15:45.856Z,231.17
2019-02-08T18:18:18.207Z,228.47
2019-02-08T18:20:58.173Z,256.67
2019-02-08T18:23:30.620Z,259.63
2019-02-08T18:26:01.966Z,281.57
2019-02-08T18:28:34.112Z,268.97
2019-02-08T18:31:05.393Z,299.80
2019-02-08T18:33:36.644Z,325.40
2019-02-08T18:36:10.999Z,316.60
2019-02-08T18:38:42.173Z,323.97
2019-02-08T18:41:13.615Z,337.53
2019-02-08T18:43:44.774Z,318.00
2019-02-08T18:46:16.088Z,312.77
2019-02-08T18:48:47.241Z,282.03
2019-02-08T18:51:18.376Z,242.87
2019-02-08T18:53:49.621Z,200.23
2019-02-08T18:56:20.842Z,197.57
2019-02-08T18:58:52.043Z,191.93
2019-02-08T19:01:23.245Z,173.17
2019-02-08T19:03:54.465Z,193.60
2019-02-08T19:06:25.764Z,164.53
2019-02-08T19:08:56.981Z,151.60
2019-02-08T19:11:28.192Z,163.83
2019-02-08T19:14:00.050Z,202.03
2019-02-08T19:16:31.336Z,173.93
2019-02-08T19:19:02.547Z,148.67
2019-02-08T19:21:33.839Z,131.83
2019-02-08T19:24:05.181Z,214.70
2019-02-08T19:26:37.979Z,190.57
2019-02-08T19:29:09.260Z,180.23
2019-02-08T19:31:57.369Z,182.70
2019-02-08T19:34:28.625Z,195.27
2019-02-08T19:36:59.893Z,165.57
2019-02-08T19:39:31.166Z,143.53
2019-02-08T19:42:03.071Z,141.23
2019-02-08T19:44:35.419Z,160.80
2019-02-08T19:47:06.605Z,136.80
2019-02-08T19:49:37.917Z,149.17
2019-02-08T19:52:09.358Z,145.67
2019-02-08T19:54:40.607Z,138.83
2019-02-08T19:57:11.878Z,134.33
2019-02-08T19:59:43.093Z,150.93
2019-02-08T20:02:14.381Z,135.70
2019-02-08T20:04:45.511Z,120.77
2019-02-08T20:07:16.866Z,144.77
2019-02-08T20:09:49.092Z,123.83
2019-02-08T20:12:21.896Z,110.50
2019-02-08T20:14:53.142Z,118.03
2019-02-08T20:17:25.132Z,306.47
2019-02-08T20:19:56.321Z,259.33
2019-02-08T20:22:27.647Z,270.97
2019-02-08T20:24:58.891Z,579.83
2019-02-08T20:27:30.206Z,383.63
2019-02-08T20:30:01.415Z,366.17
2019-02-08T20:32:32.648Z,355.80
2019-02-08T20:35:04.478Z,469.47
2019-02-08T20:37:35.681Z,313.67
2019-02-08T20:40:10.046Z,278.17
2019-02-08T20:42:42.750Z,305.77
2019-02-08T20:45:17.072Z,357.30
2019-02-08T20:47:48.347Z,321.00
2019-02-08T20:50:20.059Z,264.60
2019-02-08T20:52:51.430Z,305.60
2019-02-08T20:55:23.590Z,302.67
2019-02-08T20:57:55.302Z,326.63
2019-02-08T21:00:30.290Z,252.77
2019-02-08T21:03:01.972Z,216.90
2019-02-08T21:05:33.226Z,241.53
2019-02-08T21:08:09.359Z,152.60
2019-02-08T21:10:40.563Z,114.87
2019-02-08T21:13:13.226Z,162.83
2019-02-08T21:15:44.456Z,168.57
2019-02-08T21:18:15.772Z,186.10
2019-02-08T21:20:46.849Z,186.07
2019-02-08T21:23:17.969Z,153.87
2019-02-08T21:25:52.352Z,144.87
2019-02-08T21:28:23.325Z,123.20
2019-02-08T21:30:54.440Z,123.93
2019-02-08T21:33:25.607Z,122.10
2019-02-08T21:35:56.780Z,142.37
2019-02-08T21:38:27.975Z,138.97
2019-02-08T21:40:59.170Z,147.73
2019-02-08T21:43:32.000Z,147.63
2019-02-08T21:46:03.141Z,153.60
2019-02-08T21:48:34.312Z,156.00
2019-02-08T21:51:05.470Z,145.23
2019-02-08T21:53:36.655Z,153.37
2019-02-08T21:56:07.838Z,146.60
2019-02-08T21:58:38.940Z,138.83
2019-02-08T22:01:10.124Z,131.53
2019-02-08T22:03:41.927Z,135.60
2019-02-08T22:06:13.120Z,130.17
2019-02-08T22:08:44.204Z,126.33
2019-02-08T22:11:15.410Z,121.73
2019-02-08T22:13:46.581Z,144.57
2019-02-08T22:16:17.587Z,171.73
2019-02-08T22:18:48.695Z,161.40
2019-02-08T22:21:19.808Z,146.90
2019-02-08T22:23:51.008Z,156.67
2019-02-08T22:26:28.539Z,144.03
2019-02-08T22:29:02.049Z,140.67
2019-02-08T22:31:33.319Z,141.27
2019-02-08T22:34:04.514Z,130.33
2019-02-08T22:36:36.755Z,117.50
2019-02-08T22:39:08.622Z,118.50
2019-02-08T22:41:39.785Z,117.57
2019-02-08T22:44:11.076Z,118.40
2019-02-08T22:46:42.295Z,131.90
2019-02-08T22:49:13.598Z,136.13
2019-02-08T22:51:44.828Z,130.53
2019-02-08T22:54:16.081Z,150.93
2019-02-08T22:56:47.314Z,185.20
2019-02-08T22:59:22.191Z,186.70
2019-02-08T23:01:51.432Z,178.43
2019-02-08T23:04:22.742Z,164.83
2019-02-08T23:06:53.972Z,314.77
2019-02-08T23:09:26.678Z,179.10
2019-02-08T23:11:58.114Z,153.73
2019-02-08T23:14:29.374Z,187.17
2019-02-08T23:17:01.308Z,224.57
2019-02-08T23:19:32.564Z,242.43
2019-02-08T23:22:03.794Z,253.90
2019-02-08T23:24:35.024Z,216.87
2019-02-08T23:27:06.245Z,169.40
2019-02-08T23:29:38.998Z,159.63
2019-02-08T23:32:10.263Z,152.27
2019-02-08T23:34:41.543Z,148.63
2019-02-08T23:37:12.767Z,166.30
2019-02-08T23:39:43.964Z,142.73
2019-02-08T23:42:15.063Z,143.67
2019-02-08T23:44:46.230Z,142.20
2019-02-08T23:47:17.477Z,144.67
2019-02-08T23:49:48.745Z,137.60
2019-02-08T23:52:22.673Z,134.87
2019-02-08T23:54:53.868Z,129.30
2019-02-08T23:57:25.094Z,136.30
2019-02-08T23:59:56.273Z,132.80
